createdAt,value
2023-05-23T00:00:42.399Z,990.46
2023-05-23T00:01:42.415Z,990.44
2023-05-23T00:02:42.512Z,990.48
2023-05-23T00:03:42.436Z,990.48
2023-05-23T00:04:42.371Z,990.54
2023-05-23T00:05:42.536Z,990.50
2023-05-23T00:06:42.342Z,990.42
2023-05-23T00:07:42.335Z,990.43
2023-05-23T00:08:42.329Z,990.36
2023-05-23T00:09:42.307Z,990.38
2023-05-23T00:10:42.297Z,990.39
2023-05-23T00:11:42.291Z,990.39
2023-05-23T00:12:42.299Z,990.40
2023-05-23T00:13:42.284Z,990.42
2023-05-23T00:14:42.258Z,990.35
2023-05-23T00:15:42.385Z,990.44
2023-05-23T00:16:42.280Z,990.39
2023-05-23T00:17:42.273Z,990.44
2023-05-23T00:18:42.215Z,990.48
2023-05-23T00:19:42.220Z,990.45
2023-05-23T00:20:42.195Z,990.46
2023-05-23T00:21:42.286Z,990.51
2023-05-23T00:22:42.230Z,990.49
2023-05-23T00:23:42.162Z,990.50
2023-05-23T00:24:42.150Z,990.51
2023-05-23T00:25:42.411Z,990.50
2023-05-23T00:26:42.124Z,990.54
2023-05-23T00:27:42.134Z,990.45
2023-05-23T00:28:42.109Z,990.48
2023-05-23T00:29:42.104Z,990.54
2023-05-23T00:30:42.273Z,990.50
2023-05-23T00:31:42.135Z,990.55
2023-05-23T00:32:42.141Z,990.52
2023-05-23T00:33:42.067Z,990.54
2023-05-23T00:34:42.044Z,990.59
2023-05-23T00:35:42.186Z,990.59
2023-05-23T00:36:42.033Z,990.57
2023-05-23T00:37:42.114Z,990.59
2023-05-23T00:38:42.001Z,990.60
2023-05-23T00:39:41.993Z,990.54
2023-05-23T00:40:42.000Z,990.59
2023-05-23T00:41:41.984Z,990.53
2023-05-23T00:42:41.956Z,990.63
2023-05-23T00:43:41.952Z,990.69
2023-05-23T00:44:41.939Z,990.71
2023-05-23T00:45:42.238Z,990.74
2023-05-23T00:46:41.937Z,990.67
2023-05-23T00:47:41.940Z,990.72
2023-05-23T00:48:41.894Z,990.67
2023-05-23T00:49:41.905Z,990.76
2023-05-23T00:50:41.891Z,990.72
2023-05-23T00:51:41.880Z,990.76
2023-05-23T00:52:41.856Z,990.75
2023-05-23T00:53:41.948Z,990.75
2023-05-23T00:54:41.836Z,990.82
2023-05-23T00:55:42.082Z,990.77
2023-05-23T00:56:41.819Z,990.73
2023-05-23T00:57:41.828Z,990.74
2023-05-23T00:58:41.795Z,990.73
2023-05-23T00:59:41.785Z,990.69
2023-05-23T01:00:41.792Z,990.81
2023-05-23T01:01:41.855Z,990.67
2023-05-23T01:02:41.813Z,990.65
2023-05-23T01:03:41.877Z,990.68
2023-05-23T01:04:41.735Z,990.65
2023-05-23T01:05:42.101Z,990.64
2023-05-23T01:06:41.706Z,990.64
2023-05-23T01:07:41.711Z,990.58
2023-05-23T01:08:41.685Z,990.65
2023-05-23T01:09:41.785Z,990.69
2023-05-23T01:10:41.663Z,990.63
2023-05-23T01:11:41.660Z,990.64
2023-05-23T01:12:41.636Z,990.67
2023-05-23T01:13:41.639Z,990.69
2023-05-23T01:14:41.649Z,990.66
2023-05-23T01:15:41.837Z,990.63
2023-05-23T01:16:41.654Z,990.73
2023-05-23T01:17:41.622Z,990.68
2023-05-23T01:18:41.596Z,990.75
2023-05-23T01:19:41.581Z,990.66
2023-05-23T01:20:41.560Z,990.66
2023-05-23T01:21:41.549Z,990.67
2023-05-23T01:22:41.546Z,990.70
2023-05-23T01:23:41.541Z,990.66
2023-05-23T01:24:41.510Z,990.70
2023-05-23T01:25:41.746Z,990.69
2023-05-23T01:26:41.515Z,990.75
2023-05-23T01:27:41.487Z,990.77
2023-05-23T01:28:41.480Z,990.68
2023-05-23T01:29:41.461Z,990.71
2023-05-23T01:30:41.453Z,990.72
2023-05-23T01:31:41.476Z,990.75
2023-05-23T01:32:41.475Z,990.75
2023-05-23T01:33:41.434Z,990.68
2023-05-23T01:34:41.420Z,990.69
2023-05-23T01:35:41.574Z,990.67
2023-05-23T01:36:41.392Z,990.75
2023-05-23T01:37:41.408Z,990.74
2023-05-23T01:38:41.383Z,990.65
2023-05-23T01:39:41.360Z,990.68
2023-05-23T01:40:41.353Z,990.74
2023-05-23T01:41:41.442Z,990.72
2023-05-23T01:42:41.367Z,990.68
2023-05-23T01:43:41.321Z,990.74
2023-05-23T01:44:41.319Z,990.69
2023-05-23T01:45:41.480Z,990.70
2023-05-23T01:46:41.306Z,990.75
2023-05-23T01:47:41.334Z,990.80
2023-05-23T01:48:41.274Z,990.73
2023-05-23T01:49:41.257Z,990.80
2023-05-23T01:50:41.250Z,990.77
2023-05-23T01:51:41.251Z,990.75
2023-05-23T01:52:41.240Z,990.78
2023-05-23T01:53:41.228Z,990.80
2023-05-23T01:54:41.215Z,990.76
2023-05-23T01:55:41.383Z,990.79
2023-05-23T01:56:41.209Z,990.81
2023-05-23T01:57:41.294Z,990.72
2023-05-23T01:58:41.178Z,990.74
2023-05-23T01:59:41.162Z,990.76
2023-05-23T02:00:41.152Z,990.77
2023-05-23T02:01:41.184Z,990.83
2023-05-23T02:02:41.224Z,990.78
2023-05-23T02:03:41.143Z,990.79
2023-05-23T02:04:41.112Z,990.75
2023-05-23T02:05:41.362Z,990.74
2023-05-23T02:06:41.103Z,990.80
2023-05-23T02:07:41.082Z,990.86
2023-05-23T02:08:41.078Z,990.87
2023-05-23T02:09:41.061Z,990.71
2023-05-23T02:10:41.058Z,990.73
2023-05-23T02:11:41.037Z,990.73
2023-05-23T02:12:41.032Z,990.74
2023-05-23T02:13:41.154Z,990.77
2023-05-23T02:14:41.012Z,990.79
2023-05-23T02:15:41.153Z,990.79
2023-05-23T02:16:40.992Z,990.82
2023-05-23T02:17:40.998Z,990.78
2023-05-23T02:18:40.964Z,990.82
2023-05-23T02:19:40.992Z,990.83
2023-05-23T02:20:40.964Z,990.85
2023-05-23T02:21:40.931Z,990.90
2023-05-23T02:22:40.918Z,990.83
2023-05-23T02:23:40.915Z,990.83
2023-05-23T02:24:40.909Z,990.85
2023-05-23T02:25:41.170Z,990.83
2023-05-23T02:26:40.878Z,990.78
2023-05-23T02:27:40.895Z,990.84
2023-05-23T02:28:40.857Z,990.80
2023-05-23T02:29:40.969Z,990.87
2023-05-23T02:30:40.841Z,990.92
2023-05-23T02:31:40.940Z,990.90
2023-05-23T02:32:40.851Z,990.89
2023-05-23T02:33:40.803Z,990.88
2023-05-23T02:34:40.852Z,990.89
2023-05-23T02:35:41.031Z,990.84
2023-05-23T02:36:40.775Z,990.99
2023-05-23T02:37:40.764Z,990.85
2023-05-23T02:38:40.775Z,990.91
2023-05-23T02:39:40.762Z,990.89
2023-05-23T02:40:40.733Z,990.94
2023-05-23T02:41:40.719Z,990.92
2023-05-23T02:42:40.718Z,990.95
2023-05-23T02:43:40.703Z,990.93
2023-05-23T02:44:40.707Z,990.93
2023-05-23T02:45:40.995Z,990.97
2023-05-23T02:46:40.762Z,990.99
2023-05-23T02:47:40.684Z,990.92
2023-05-23T02:48:40.694Z,991.02
2023-05-23T02:49:40.644Z,990.99
2023-05-23T02:50:40.639Z,991.02
2023-05-23T02:51:40.625Z,991.06
2023-05-23T02:52:40.620Z,991.00
2023-05-23T02:53:40.626Z,991.02
2023-05-23T02:54:40.621Z,991.07
2023-05-23T02:55:40.802Z,991.10
2023-05-23T02:56:40.566Z,990.99
2023-05-23T02:57:40.603Z,991.02
2023-05-23T02:58:40.590Z,991.02
2023-05-23T02:59:40.536Z,991.03
2023-05-23T03:00:40.531Z,991.03
2023-05-23T03:01:40.749Z,991.05
2023-05-23T03:02:40.581Z,991.05
2023-05-23T03:03:40.560Z,991.06
2023-05-23T03:04:40.547Z,991.00
2023-05-23T03:05:40.777Z,991.03
2023-05-23T03:06:40.534Z,991.21
2023-05-23T03:07:40.501Z,991.06
2023-05-23T03:08:40.498Z,991.02
2023-05-23T03:09:40.490Z,991.17
2023-05-23T03:10:40.486Z,991.17
2023-05-23T03:11:40.478Z,991.12
2023-05-23T03:12:40.456Z,991.20
2023-05-23T03:13:40.447Z,991.16
2023-05-23T03:14:40.477Z,991.23
2023-05-23T03:15:40.574Z,991.19
2023-05-23T03:16:40.587Z,991.21
2023-05-23T03:17:40.546Z,991.21
2023-05-23T03:18:40.397Z,991.24
2023-05-23T03:19:40.476Z,991.24
2023-05-23T03:20:40.385Z,991.24
2023-05-23T03:21:40.378Z,991.23
2023-05-23T03:22:40.357Z,991.29
2023-05-23T03:23:40.352Z,991.36
2023-05-23T03:24:40.356Z,991.27
2023-05-23T03:25:40.431Z,991.38
2023-05-23T03:26:40.317Z,991.33
2023-05-23T03:27:40.303Z,991.33
2023-05-23T03:28:40.293Z,991.29
2023-05-23T03:29:40.287Z,991.31
2023-05-23T03:30:40.292Z,991.28
2023-05-23T03:31:40.321Z,991.34
2023-05-23T03:32:40.310Z,991.31
2023-05-23T03:33:40.591Z,991.35
2023-05-23T03:34:40.249Z,991.28
2023-05-23T03:35:40.354Z,991.38
2023-05-23T03:36:40.221Z,991.41
2023-05-23T03:37:40.207Z,991.37
2023-05-23T03:38:40.191Z,991.43
2023-05-23T03:39:40.189Z,991.40
2023-05-23T03:40:40.186Z,991.37
2023-05-23T03:41:40.167Z,991.39
2023-05-23T03:42:40.150Z,991.43
2023-05-23T03:43:40.142Z,991.43
2023-05-23T03:44:40.140Z,991.33
2023-05-23T03:45:40.335Z,991.42
2023-05-23T03:46:40.372Z,991.40
2023-05-23T03:47:40.155Z,991.42
2023-05-23T03:48:40.100Z,991.39
2023-05-23T03:49:40.091Z,991.44
2023-05-23T03:50:40.065Z,991.41
2023-05-23T03:51:40.051Z,991.43
2023-05-23T03:52:40.048Z,991.44
2023-05-23T03:53:40.046Z,991.44
2023-05-23T03:54:40.028Z,991.46
2023-05-23T03:55:40.166Z,991.45
2023-05-23T03:56:39.998Z,991.44
2023-05-23T03:57:39.987Z,991.44
2023-05-23T03:58:39.987Z,991.51
2023-05-23T03:59:39.964Z,991.45
2023-05-23T04:00:39.960Z,991.52
2023-05-23T04:01:39.946Z,991.41
2023-05-23T04:02:40.175Z,991.52
2023-05-23T04:03:40.001Z,991.45
2023-05-23T04:04:40.009Z,991.46
2023-05-23T04:05:40.277Z,991.45
2023-05-23T04:06:39.898Z,991.46
2023-05-23T04:07:39.891Z,991.49
2023-05-23T04:08:39.874Z,991.45
2023-05-23T04:09:39.862Z,991.57
2023-05-23T04:10:39.854Z,991.48
2023-05-23T04:11:39.856Z,991.46
2023-05-23T04:12:39.845Z,991.42
2023-05-23T04:13:39.818Z,991.50
2023-05-23T04:14:39.808Z,991.40
2023-05-23T04:15:39.946Z,991.55
2023-05-23T04:16:39.847Z,991.55
2023-05-23T04:17:39.791Z,991.48
2023-05-23T04:18:39.773Z,991.43
2023-05-23T04:19:39.792Z,991.46
2023-05-23T04:20:39.745Z,991.39
2023-05-23T04:21:39.818Z,991.42
2023-05-23T04:22:39.699Z,991.42
2023-05-23T04:23:39.680Z,991.46
2023-05-23T04:24:39.661Z,991.45
2023-05-23T04:25:39.943Z,991.48
2023-05-23T04:26:39.678Z,991.48
2023-05-23T04:27:40.502Z,991.50
2023-05-23T04:28:39.608Z,991.48
2023-05-23T04:29:39.597Z,991.54
2023-05-23T04:30:39.584Z,991.47
2023-05-23T04:31:39.611Z,991.50
2023-05-23T04:32:39.588Z,991.56
2023-05-23T04:33:39.560Z,991.53
2023-05-23T04:34:39.545Z,991.53
2023-05-23T04:35:39.722Z,991.56
2023-05-23T04:36:39.528Z,991.56
2023-05-23T04:37:39.633Z,991.58
2023-05-23T04:38:39.515Z,991.59
2023-05-23T04:39:39.491Z,991.62
2023-05-23T04:40:39.495Z,991.64
2023-05-23T04:41:39.523Z,991.62
2023-05-23T04:42:39.456Z,991.64
2023-05-23T04:43:39.451Z,991.67
2023-05-23T04:44:39.444Z,991.64
2023-05-23T04:45:39.652Z,991.66
2023-05-23T04:46:39.463Z,991.66
2023-05-23T04:47:39.481Z,991.68
2023-05-23T04:48:39.410Z,991.68
2023-05-23T04:49:39.398Z,991.74
2023-05-23T04:50:39.391Z,991.73
2023-05-23T04:51:39.391Z,991.73
2023-05-23T04:52:39.359Z,991.80
2023-05-23T04:53:39.450Z,991.73
2023-05-23T04:54:39.346Z,991.73
2023-05-23T04:55:39.497Z,991.72
2023-05-23T04:56:39.310Z,991.78
2023-05-23T04:57:39.317Z,991.79
2023-05-23T04:58:39.294Z,991.78
2023-05-23T04:59:39.299Z,991.72
2023-05-23T05:00:39.713Z,991.72
2023-05-23T05:01:39.335Z,991.77
2023-05-23T05:02:39.317Z,991.81
2023-05-23T05:03:39.308Z,991.81
2023-05-23T05:04:39.239Z,991.86
2023-05-23T05:05:39.219Z,991.85
2023-05-23T05:06:39.209Z,991.76
2023-05-23T05:07:39.200Z,991.78
2023-05-23T05:08:39.186Z,991.78
2023-05-23T05:09:39.287Z,991.79
2023-05-23T05:10:39.292Z,991.84
2023-05-23T05:11:39.158Z,991.84
2023-05-23T05:12:39.147Z,991.84
2023-05-23T05:13:39.147Z,991.84
2023-05-23T05:14:39.132Z,991.94
2023-05-23T05:15:39.116Z,991.92
2023-05-23T05:16:39.277Z,991.82
2023-05-23T05:17:39.177Z,991.94
2023-05-23T05:18:39.149Z,991.91
2023-05-23T05:19:39.153Z,991.90
2023-05-23T05:20:39.375Z,991.90
2023-05-23T05:21:39.136Z,991.90
2023-05-23T05:22:39.038Z,991.99
2023-05-23T05:23:39.127Z,991.98
2023-05-23T05:24:39.028Z,992.03
2023-05-23T05:25:39.118Z,992.09
2023-05-23T05:26:38.997Z,992.02
2023-05-23T05:27:38.993Z,992.11
2023-05-23T05:28:40.480Z,992.04
2023-05-23T05:29:45.663Z,992.11
2023-05-23T05:30:39.288Z,992.06
2023-05-23T05:31:38.986Z,992.04
2023-05-23T05:32:39.010Z,992.17
2023-05-23T05:33:38.932Z,992.15
2023-05-23T05:34:38.913Z,992.12
2023-05-23T05:35:38.910Z,992.08
2023-05-23T05:36:38.892Z,992.16
2023-05-23T05:37:39.586Z,992.15
2023-05-23T05:38:38.876Z,992.11
2023-05-23T05:39:38.869Z,992.16
2023-05-23T05:40:39.016Z,992.19
2023-05-23T05:41:38.942Z,992.14
2023-05-23T05:42:38.849Z,992.22
2023-05-23T05:43:38.829Z,992.15
2023-05-23T05:44:38.838Z,992.25
2023-05-23T05:45:38.803Z,992.22
2023-05-23T05:46:38.819Z,992.20
2023-05-23T05:47:38.871Z,992.23
2023-05-23T05:48:39.232Z,992.23
2023-05-23T05:50:14.650Z,992.28
2023-05-23T05:50:45.743Z,992.29
2023-05-23T05:51:39.106Z,992.27
2023-05-23T05:52:38.754Z,992.33
2023-05-23T05:53:38.732Z,992.28
2023-05-23T05:54:38.717Z,992.28
2023-05-23T05:55:38.702Z,992.17
2023-05-23T05:56:38.719Z,992.27
2023-05-23T05:57:38.856Z,992.26
2023-05-23T05:58:38.713Z,992.22
2023-05-23T05:59:38.676Z,992.23
2023-05-23T06:00:38.737Z,992.25
2023-05-23T06:01:38.654Z,992.23
2023-05-23T06:02:38.711Z,992.21
2023-05-23T06:03:38.794Z,992.22
2023-05-23T06:04:38.670Z,992.19
2023-05-23T06:05:38.607Z,992.20
2023-05-23T06:06:38.598Z,992.19
2023-05-23T06:07:38.627Z,992.21
2023-05-23T06:08:59.563Z,992.18
2023-05-23T06:09:38.561Z,992.28
2023-05-23T06:10:38.858Z,992.24
2023-05-23T06:12:06.164Z,992.21
2023-05-23T06:14:04.643Z,992.14
2023-05-23T06:15:07.670Z,992.08
2023-05-23T06:16:11.167Z,992.13
2023-05-23T06:19:57.557Z,992.18
2023-05-23T06:22:34.000Z,992.10
2023-05-23T06:23:22.364Z,992.15
2023-05-23T06:24:22.354Z,992.15
2023-05-23T06:25:22.344Z,992.18
2023-05-23T06:26:22.343Z,992.18
2023-05-23T06:27:22.334Z,992.18
2023-05-23T06:28:22.312Z,992.14
2023-05-23T06:29:22.498Z,992.10
2023-05-23T06:30:24.130Z,992.09
2023-05-23T06:31:22.349Z,992.10
2023-05-23T06:32:22.267Z,992.12
2023-05-23T06:33:22.247Z,992.15
2023-05-23T06:34:22.254Z,992.07
2023-05-23T06:35:22.250Z,992.09
2023-05-23T06:36:22.219Z,992.21
2023-05-23T06:37:22.205Z,992.10
2023-05-23T06:38:22.200Z,992.02
2023-05-23T06:39:22.191Z,992.10
2023-05-23T06:40:22.176Z,992.12
2023-05-23T06:41:22.167Z,992.12
2023-05-23T06:42:22.153Z,992.18
2023-05-23T06:43:22.155Z,992.12
2023-05-23T06:44:28.613Z,992.11
2023-05-23T06:45:22.145Z,992.13
2023-05-23T06:46:22.194Z,992.19
2023-05-23T06:47:22.118Z,992.19
2023-05-23T06:48:22.164Z,992.19
2023-05-23T06:49:22.088Z,992.24
2023-05-23T06:50:22.069Z,992.22
2023-05-23T06:51:22.096Z,992.22
2023-05-23T06:52:22.051Z,992.32
2023-05-23T06:53:22.045Z,992.30
2023-05-23T06:54:22.022Z,992.31
2023-05-23T06:55:22.022Z,992.36
2023-05-23T06:56:22.004Z,992.25
2023-05-23T06:57:22.023Z,992.29
2023-05-23T06:58:22.006Z,992.27
2023-05-23T06:59:21.986Z,992.27
2023-05-23T07:00:22.064Z,992.29
2023-05-23T07:01:22.013Z,992.29
2023-05-23T07:02:21.989Z,992.36
2023-05-23T07:03:22.008Z,992.30
2023-05-23T07:04:21.916Z,992.32
2023-05-23T07:05:21.929Z,992.27
2023-05-23T07:06:21.901Z,992.42
2023-05-23T07:08:50.964Z,992.36
2023-05-23T07:09:47.989Z,992.34
2023-05-23T07:10:47.858Z,992.37
2023-05-23T07:11:47.876Z,992.38
2023-05-23T07:12:47.853Z,992.36
2023-05-23T07:13:47.838Z,992.39
2023-05-23T07:14:47.820Z,992.34
2023-05-23T07:15:47.903Z,992.37
2023-05-23T07:16:47.825Z,992.42
2023-05-23T07:17:47.823Z,992.47
2023-05-23T07:18:47.795Z,992.34
2023-05-23T07:19:47.760Z,992.42
2023-05-23T07:20:47.752Z,992.41
2023-05-23T07:21:47.759Z,992.35
2023-05-23T07:22:47.736Z,992.37
2023-05-23T07:23:47.719Z,992.32
2023-05-23T07:24:47.705Z,992.36
2023-05-23T07:26:00.997Z,992.43
2023-05-23T07:26:48.961Z,992.36
2023-05-23T07:27:47.673Z,992.37
2023-05-23T07:28:47.677Z,992.26
2023-05-23T07:29:47.652Z,992.40
2023-05-23T07:30:47.689Z,992.31
2023-05-23T07:31:47.741Z,992.30
2023-05-23T07:32:47.651Z,992.29
2023-05-23T07:33:47.614Z,992.28
2023-05-23T07:34:47.601Z,992.35
2023-05-23T07:35:47.597Z,992.29
2023-05-23T07:36:47.586Z,992.39
2023-05-23T07:37:50.192Z,992.36
2023-05-23T07:38:54.488Z,992.40
2023-05-23T07:39:47.594Z,992.44
2023-05-23T07:40:55.611Z,992.41
2023-05-23T07:41:48.545Z,992.47
2023-05-23T07:42:47.514Z,992.43
2023-05-23T07:43:47.503Z,992.43
2023-05-23T07:44:47.608Z,992.42
2023-05-23T07:45:47.558Z,992.37
2023-05-23T07:46:47.546Z,992.46
2023-05-23T07:47:47.574Z,992.43
2023-05-23T07:48:47.458Z,992.42
2023-05-23T07:49:47.492Z,992.44
2023-05-23T07:50:47.435Z,992.42
2023-05-23T07:51:47.431Z,992.47
2023-05-23T07:52:47.412Z,992.45
2023-05-23T07:53:47.401Z,992.46
2023-05-23T07:54:47.417Z,992.51
2023-05-23T07:55:47.390Z,992.44
2023-05-23T07:56:47.379Z,992.48
2023-05-23T07:57:47.370Z,992.49
2023-05-23T07:58:47.361Z,992.47
2023-05-23T07:59:47.355Z,992.47
2023-05-23T08:00:47.338Z,992.50
2023-05-23T08:01:47.368Z,992.49
2023-05-23T08:02:47.348Z,992.53
2023-05-23T08:03:47.377Z,992.47
2023-05-23T08:04:47.422Z,992.53
2023-05-23T08:05:47.293Z,992.50
2023-05-23T08:07:00.642Z,992.46
2023-05-23T08:07:48.258Z,992.47
2023-05-23T08:08:47.270Z,992.46
2023-05-23T08:09:47.240Z,992.47
2023-05-23T08:10:47.256Z,992.48
2023-05-23T08:11:47.213Z,992.49
2023-05-23T08:12:47.222Z,992.47
2023-05-23T08:13:47.201Z,992.55
2023-05-23T08:14:51.361Z,992.59
2023-05-23T08:15:48.211Z,992.58
2023-05-23T08:16:47.318Z,992.59
2023-05-23T08:17:47.240Z,992.53
2023-05-23T08:20:13.140Z,992.58
2023-05-23T08:21:19.752Z,992.59
2023-05-23T08:22:14.024Z,992.64
2023-05-23T08:23:13.106Z,992.63
2023-05-23T08:24:14.937Z,992.65
2023-05-23T08:25:13.075Z,992.62
2023-05-23T08:26:13.062Z,992.66
2023-05-23T08:27:13.062Z,992.69
2023-05-23T08:28:13.040Z,992.73
2023-05-23T08:29:13.034Z,992.69
2023-05-23T08:30:13.026Z,992.68
2023-05-23T08:31:13.007Z,992.65
2023-05-23T08:32:13.131Z,992.71
2023-05-23T08:33:12.994Z,992.73
2023-05-23T08:34:12.973Z,992.73
2023-05-23T08:35:12.960Z,992.74
2023-05-23T08:36:12.968Z,992.71
2023-05-23T08:37:12.948Z,992.75
2023-05-23T08:38:12.931Z,992.75
2023-05-23T08:39:14.246Z,992.76
2023-05-23T08:40:12.913Z,992.77
2023-05-23T08:41:12.902Z,992.77
2023-05-23T08:42:12.967Z,992.82
2023-05-23T08:43:12.871Z,992.82
2023-05-23T08:44:12.863Z,992.83
2023-05-23T08:45:12.848Z,992.76
2023-05-23T08:46:12.887Z,992.82
2023-05-23T08:47:12.838Z,992.83
2023-05-23T08:48:12.817Z,992.88
2023-05-23T08:49:12.807Z,992.90
2023-05-23T08:50:12.799Z,992.81
2023-05-23T08:51:12.790Z,992.88
2023-05-23T08:52:12.793Z,992.90
2023-05-23T08:53:12.761Z,992.96
2023-05-23T08:54:16.705Z,992.97
2023-05-23T08:55:12.953Z,992.98
2023-05-23T08:56:12.938Z,993.04
2023-05-23T08:57:12.722Z,992.96
2023-05-23T08:58:12.715Z,992.92
2023-05-23T08:59:12.702Z,993.02
2023-05-23T09:00:12.710Z,993.00
2023-05-23T09:01:12.710Z,992.97
2023-05-23T09:02:12.686Z,993.00
2023-05-23T09:03:12.663Z,992.99
2023-05-23T09:04:12.665Z,992.98
2023-05-23T09:05:12.712Z,993.00
2023-05-23T09:06:12.636Z,993.09
2023-05-23T09:07:12.677Z,993.00
2023-05-23T09:08:13.237Z,992.98
2023-05-23T09:09:12.619Z,993.12
2023-05-23T09:10:12.603Z,993.04
2023-05-23T09:11:12.578Z,993.07
2023-05-23T09:12:12.571Z,993.06
2023-05-23T09:13:12.560Z,993.10
2023-05-23T09:14:12.563Z,993.11
2023-05-23T09:15:12.677Z,993.09
2023-05-23T09:16:14.331Z,993.14
2023-05-23T09:17:12.534Z,993.14
2023-05-23T09:18:12.514Z,993.14
2023-05-23T09:19:12.547Z,993.24
2023-05-23T09:20:12.496Z,993.15
2023-05-23T09:21:12.480Z,993.09
2023-05-23T09:22:12.467Z,993.14
2023-05-23T09:23:12.463Z,993.21
2023-05-23T09:24:12.464Z,993.16
2023-05-23T09:25:12.460Z,993.03
2023-05-23T09:26:12.421Z,993.06
2023-05-23T09:27:12.406Z,993.14
2023-05-23T09:28:12.425Z,993.06
2023-05-23T09:29:12.392Z,993.06
2023-05-23T09:30:12.414Z,993.10
2023-05-23T09:31:12.427Z,993.13
2023-05-23T09:32:12.406Z,993.12
2023-05-23T09:33:12.432Z,993.11
2023-05-23T09:34:12.339Z,993.13
2023-05-23T09:35:12.364Z,993.10
2023-05-23T09:36:12.312Z,993.19
2023-05-23T09:37:12.308Z,993.19
2023-05-23T09:38:12.311Z,993.18
2023-05-23T09:39:12.309Z,993.19
2023-05-23T09:40:12.367Z,993.17
2023-05-23T09:41:12.313Z,993.17
2023-05-23T09:42:12.266Z,993.18
2023-05-23T09:43:12.277Z,993.14
2023-05-23T09:44:12.251Z,993.13
2023-05-23T09:45:12.256Z,993.11
2023-05-23T09:46:12.238Z,993.19
2023-05-23T09:47:12.324Z,993.21
2023-05-23T09:48:12.240Z,993.20
2023-05-23T09:49:12.175Z,993.20
2023-05-23T09:50:12.224Z,993.17
2023-05-23T09:51:12.168Z,993.24
2023-05-23T09:52:12.158Z,993.21
2023-05-23T09:53:12.149Z,993.25
2023-05-23T09:54:12.139Z,993.27
2023-05-23T09:55:12.129Z,993.26
2023-05-23T09:56:12.111Z,993.20
2023-05-23T09:57:12.141Z,993.23
2023-05-23T09:58:12.108Z,993.25
2023-05-23T09:59:12.076Z,993.30
2023-05-23T10:00:12.105Z,993.26
2023-05-23T10:01:12.088Z,993.30
2023-05-23T10:02:12.099Z,993.33
2023-05-23T10:03:12.147Z,993.31
2023-05-23T10:04:12.064Z,993.35
2023-05-23T10:05:12.063Z,993.33
2023-05-23T10:06:12.016Z,993.37
2023-05-23T10:07:12.013Z,993.36
2023-05-23T10:08:11.978Z,993.36
2023-05-23T10:09:11.973Z,993.37
2023-05-23T10:10:11.978Z,993.35
2023-05-23T10:11:11.973Z,993.35
2023-05-23T10:12:11.942Z,993.37
2023-05-23T10:13:11.929Z,993.39
2023-05-23T10:14:11.913Z,993.37
2023-05-23T10:15:11.922Z,993.36
2023-05-23T10:16:11.899Z,993.35
2023-05-23T10:17:11.966Z,993.35
2023-05-23T10:18:11.872Z,993.44
2023-05-23T10:19:11.941Z,993.43
2023-05-23T10:20:11.864Z,993.51
2023-05-23T10:21:11.850Z,993.52
2023-05-23T10:22:11.838Z,993.44
2023-05-23T10:23:11.812Z,993.48
2023-05-23T10:24:11.810Z,993.47
2023-05-23T10:25:11.811Z,993.51
2023-05-23T10:26:11.783Z,993.57
2023-05-23T10:27:11.780Z,993.46
2023-05-23T10:28:11.774Z,993.50
2023-05-23T10:29:11.753Z,993.54
2023-05-23T10:30:11.756Z,993.55
2023-05-23T10:31:11.793Z,993.54
2023-05-23T10:32:11.723Z,993.55
2023-05-23T10:33:11.710Z,993.50
2023-05-23T10:34:11.713Z,993.60
2023-05-23T10:35:11.741Z,993.59
2023-05-23T10:36:11.707Z,993.59
2023-05-23T10:37:11.694Z,993.62
2023-05-23T10:38:11.834Z,993.63
2023-05-23T10:39:11.646Z,993.67
2023-05-23T10:40:11.633Z,993.66
2023-05-23T10:41:11.632Z,993.70
2023-05-23T10:42:11.603Z,993.78
2023-05-23T10:43:11.619Z,993.74
2023-05-23T10:44:11.591Z,993.77
2023-05-23T10:45:11.575Z,993.72
2023-05-23T10:46:11.647Z,993.84
2023-05-23T10:47:11.591Z,993.91
2023-05-23T10:48:11.767Z,993.85
2023-05-23T10:49:11.531Z,993.91
2023-05-23T10:50:11.588Z,993.82
2023-05-23T10:51:11.506Z,993.96
2023-05-23T10:52:11.502Z,993.94
2023-05-23T10:53:11.497Z,994.00
2023-05-23T10:54:11.503Z,993.87
2023-05-23T10:55:11.464Z,993.99
2023-05-23T10:56:11.463Z,993.92
2023-05-23T10:57:11.452Z,993.89
2023-05-23T10:58:11.464Z,993.97
2023-05-23T10:59:11.419Z,994.05
2023-05-23T11:00:11.453Z,993.99
2023-05-23T11:01:11.409Z,994.04
2023-05-23T11:02:11.528Z,993.98
2023-05-23T11:03:11.561Z,994.06
2023-05-23T11:04:11.411Z,994.14
2023-05-23T11:05:11.357Z,994.08
2023-05-23T11:06:11.354Z,994.11
2023-05-23T11:07:11.344Z,994.11
2023-05-23T11:08:11.319Z,994.11
2023-05-23T11:09:11.314Z,994.14
2023-05-23T11:10:11.354Z,994.11
2023-05-23T11:11:11.302Z,994.13
2023-05-23T11:12:11.349Z,994.11
2023-05-23T11:13:11.297Z,994.04
2023-05-23T11:14:11.262Z,994.15
2023-05-23T11:15:11.252Z,994.03
2023-05-23T11:16:11.253Z,994.12
2023-05-23T11:17:11.229Z,994.18
2023-05-23T11:18:11.250Z,994.18
2023-05-23T11:19:11.339Z,994.23
2023-05-23T11:20:13.874Z,994.12
2023-05-23T11:22:12.282Z,994.19
2023-05-23T11:23:11.166Z,994.19
2023-05-23T11:24:11.385Z,994.20
2023-05-23T11:25:11.172Z,994.23
2023-05-23T11:26:11.152Z,994.25
2023-05-23T11:27:11.134Z,994.21
2023-05-23T11:28:11.134Z,994.27
2023-05-23T11:29:11.160Z,994.25
2023-05-23T11:30:11.138Z,994.27
2023-05-23T11:31:11.107Z,994.32
2023-05-23T11:32:16.027Z,994.29
2023-05-23T11:33:12.136Z,994.35
2023-05-23T11:34:11.065Z,994.31
2023-05-23T11:35:11.074Z,994.30
2023-05-23T11:36:11.065Z,994.35
2023-05-23T11:37:11.041Z,994.25
2023-05-23T11:38:11.769Z,994.39
2023-05-23T11:39:11.292Z,994.33
2023-05-23T11:40:11.128Z,994.33
2023-05-23T11:41:11.074Z,994.30
2023-05-23T11:42:10.980Z,994.30
2023-05-23T11:43:11.025Z,994.34
2023-05-23T11:44:11.026Z,994.36
2023-05-23T12:05:58.674Z,994.42
2023-05-23T12:06:42.690Z,994.39
2023-05-23T12:07:42.222Z,994.38
2023-05-23T12:08:42.218Z,994.40
2023-05-23T12:22:58.361Z,994.60
2023-05-23T12:23:36.753Z,994.49
2023-05-23T12:24:36.711Z,994.57
2023-05-23T12:25:36.687Z,994.54
2023-05-23T12:26:36.687Z,994.54
2023-05-23T12:27:36.684Z,994.54
2023-05-23T12:28:36.705Z,994.50
2023-05-23T12:29:36.647Z,994.62
2023-05-23T12:30:36.672Z,994.57
2023-05-23T12:31:36.699Z,994.56
2023-05-23T12:32:36.780Z,994.54
2023-05-23T12:33:40.295Z,994.67
2023-05-23T12:34:36.603Z,994.53
2023-05-23T12:35:36.591Z,994.63
2023-05-23T12:36:44.854Z,994.67
2023-05-23T12:37:37.572Z,994.63
2023-05-23T12:38:36.742Z,994.59
2023-05-23T12:39:43.341Z,994.60
2023-05-23T12:40:36.551Z,994.64
2023-05-23T12:41:36.534Z,994.63
2023-05-23T12:42:36.517Z,994.68
2023-05-23T12:43:36.505Z,994.69
2023-05-23T12:44:36.494Z,994.72
2023-05-23T12:45:36.560Z,994.64
2023-05-23T12:46:36.513Z,994.66
2023-05-23T12:47:36.498Z,994.65
2023-05-23T12:48:36.472Z,994.65
2023-05-23T12:49:37.317Z,994.64
2023-05-23T12:50:36.444Z,994.68
2023-05-23T12:51:36.427Z,994.71
2023-05-23T12:52:36.424Z,994.68
2023-05-23T12:53:36.406Z,994.66
2023-05-23T12:54:36.452Z,994.74
2023-05-23T12:55:36.403Z,994.77
2023-05-23T12:56:36.380Z,994.72
2023-05-23T12:57:36.477Z,994.74
2023-05-23T12:58:36.366Z,994.78
2023-05-23T12:59:36.428Z,994.77
2023-05-23T13:03:28.981Z,994.83
2023-05-23T13:04:31.071Z,994.87
2023-05-23T13:05:28.313Z,994.86
2023-05-23T13:06:28.359Z,994.84
2023-05-23T13:07:28.372Z,994.83
2023-05-23T13:08:28.333Z,994.91
2023-05-23T13:09:28.264Z,994.90
2023-05-23T13:10:30.896Z,994.87
2023-05-23T13:11:28.240Z,994.90
2023-05-23T13:12:28.229Z,994.95
2023-05-23T13:13:28.330Z,994.83
2023-05-23T13:14:28.259Z,994.92